createdAt,value
2017-04-27T00:00:36.894Z,-0.63
2017-04-27T00:01:47.152Z,-0.66
2017-04-27T00:02:57.406Z,-0.67
2017-04-27T00:04:07.654Z,-0.56
2017-04-27T00:05:17.589Z,-0.56
2017-04-27T00:06:27.839Z,-0.54
2017-04-27T00:07:38.093Z,-0.59
2017-04-27T00:08:48.339Z,-0.53
2017-04-27T00:09:58.596Z,-0.56
2017-04-27T00:11:08.841Z,-0.54
2017-04-27T00:12:19.096Z,-0.48
2017-04-27T00:13:29.350Z,-0.51
2017-04-27T00:14:39.607Z,-0.48
2017-04-27T00:15:49.865Z,-0.35
2017-04-27T00:17:00.115Z,-0.36
2017-04-27T00:18:10.050Z,-0.35
2017-04-27T00:19:19.704Z,-0.33
2017-04-27T00:20:29.952Z,-0.35
2017-04-27T00:21:40.202Z,-0.39
2017-04-27T00:22:50.455Z,-0.39
2017-04-27T00:24:00.707Z,-0.42
2017-04-27T00:25:10.960Z,-0.36
2017-04-27T00:26:21.224Z,-0.36
2017-04-27T00:27:31.482Z,-0.42
2017-04-27T00:28:41.425Z,-0.39
2017-04-27T00:29:51.680Z,-0.38
2017-04-27T00:31:01.935Z,-0.41
2017-04-27T00:32:11.559Z,-0.48
2017-04-27T00:33:21.498Z,-0.48
2017-04-27T00:34:31.440Z,-0.59
2017-04-27T00:35:41.698Z,-0.64
2017-04-27T00:36:51.950Z,-0.72
2017-04-27T00:38:02.201Z,-0.85
2017-04-27T00:39:12.139Z,-0.93
2017-04-27T00:40:22.382Z,-0.93
2017-04-27T00:41:32.644Z,-0.82
2017-04-27T00:42:42.897Z,-0.99
2017-04-27T00:43:53.147Z,-0.97
2017-04-27T00:45:03.405Z,-1.03
2017-04-27T00:46:13.663Z,-1.12
2017-04-27T00:47:23.922Z,-1.15
2017-04-27T00:48:34.174Z,-1.04
2017-04-27T00:49:44.111Z,-1.17
2017-04-27T00:50:54.364Z,-1.27
2017-04-27T00:52:04.617Z,-1.19
2017-04-27T00:53:14.868Z,-1.17
2017-04-27T00:54:25.126Z,-1.17
2017-04-27T00:55:35.103Z,-1.17
2017-04-27T00:56:45.350Z,-1.21
2017-04-27T00:57:55.603Z,-1.32
2017-04-27T00:59:05.546Z,-1.3
2017-04-27T01:00:15.804Z,-1.18
2017-04-27T01:01:26.054Z,-1.27
2017-04-27T01:02:35.996Z,-1.21
2017-04-27T01:03:46.249Z,-1.24
2017-04-27T01:04:56.505Z,-1.25
2017-04-27T01:06:06.763Z,-1.19
2017-04-27T01:07:17.017Z,-1.21
2017-04-27T01:08:27.273Z,-1.19
2017-04-27T01:09:37.537Z,-1.17
2017-04-27T01:10:47.791Z,-1.22
2017-04-27T01:11:58.050Z,-1.17
2017-04-27T01:13:08.303Z,-1.07
2017-04-27T01:14:18.561Z,-1.11
2017-04-27T01:15:28.513Z,-1.06
2017-04-27T01:16:38.775Z,-1.03
2017-04-27T01:17:48.721Z,-1.03
2017-04-27T01:18:58.662Z,-1.03
2017-04-27T01:20:08.915Z,-0.94
2017-04-27T01:21:19.170Z,-0.96
2017-04-27T01:22:29.440Z,-0.87
2017-04-27T01:23:39.384Z,-0.85
2017-04-27T01:24:49.639Z,-0.87
2017-04-27T01:25:59.893Z,-0.78
2017-04-27T01:27:10.159Z,-0.72
2017-04-27T01:28:20.094Z,-0.74
2017-04-27T01:29:30.357Z,-0.66
2017-04-27T01:30:40.614Z,-0.67
2017-04-27T01:31:50.860Z,-0.69
2017-04-27T01:33:00.802Z,-0.54
2017-04-27T01:34:10.755Z,-0.53
2017-04-27T01:35:20.699Z,-0.56
2017-04-27T01:36:30.638Z,-0.51
2017-04-27T01:37:40.904Z,-0.41
2017-04-27T01:38:51.168Z,-0.56
2017-04-27T01:40:01.438Z,-0.54
2017-04-27T01:41:11.688Z,-0.56
2017-04-27T01:42:21.632Z,-0.53
2017-04-27T01:43:31.889Z,-0.6
2017-04-27T01:44:41.833Z,-0.59
2017-04-27T01:45:52.089Z,-0.57
2017-04-27T01:47:02.344Z,-0.62
2017-04-27T01:48:12.622Z,-0.67
2017-04-27T01:49:22.565Z,-0.67
2017-04-27T01:50:32.817Z,-0.63
2017-04-27T01:51:43.076Z,-0.62
2017-04-27T01:52:53.344Z,-0.63
2017-04-27T01:54:03.602Z,-0.66
2017-04-27T01:55:13.867Z,-0.69
2017-04-27T01:56:24.124Z,-0.63
2017-04-27T01:57:34.378Z,-0.72
2017-04-27T01:58:44.633Z,-0.62
2017-04-27T01:59:54.887Z,-0.64
2017-04-27T02:01:05.147Z,-0.56
2017-04-27T02:02:14.773Z,-0.64
2017-04-27T02:03:25.033Z,-0.59
2017-04-27T02:04:35.289Z,-0.59
2017-04-27T02:05:45.543Z,-0.69
2017-04-27T02:06:55.795Z,-0.67
2017-04-27T02:08:06.059Z,-0.72
2017-04-27T02:09:16.615Z,-0.66
2017-04-27T02:10:26.873Z,-0.77
2017-04-27T02:11:37.126Z,-0.67
2017-04-27T02:12:47.382Z,-0.72
2017-04-27T02:13:57.641Z,-0.67
2017-04-27T02:15:07.582Z,-0.69
2017-04-27T02:16:17.207Z,-0.69
2017-04-27T02:17:27.468Z,-0.77
2017-04-27T02:18:37.729Z,-0.78
2017-04-27T02:19:47.983Z,-0.74
2017-04-27T02:20:58.238Z,-0.67
2017-04-27T02:22:08.178Z,-0.69
2017-04-27T02:23:18.433Z,-0.66
2017-04-27T02:24:28.691Z,-0.6
2017-04-27T02:25:38.946Z,-0.63
2017-04-27T02:26:49.199Z,-0.56
2017-04-27T02:27:59.449Z,-0.54
2017-04-27T02:29:09.401Z,-0.54
2017-04-27T02:30:19.339Z,-0.59
2017-04-27T02:31:29.597Z,-0.53
2017-04-27T02:32:39.541Z,-0.51
2017-04-27T02:33:49.800Z,-0.53
2017-04-27T02:35:00.060Z,-0.56
2017-04-27T02:36:09.994Z,-0.59
2017-04-27T02:37:20.288Z,-0.51
2017-04-27T02:38:30.564Z,-0.59
2017-04-27T02:39:40.828Z,-0.75
2017-04-27T02:40:51.078Z,-0.7
2017-04-27T02:42:01.337Z,-0.72
2017-04-27T02:43:11.587Z,-0.66
2017-04-27T02:44:21.524Z,-0.66
2017-04-27T02:45:31.787Z,-0.64
2017-04-27T02:46:42.046Z,-0.7
2017-04-27T02:47:52.302Z,-0.67
2017-04-27T02:49:02.558Z,-0.57
2017-04-27T02:50:12.520Z,-0.57
2017-04-27T02:51:22.463Z,-0.59
2017-04-27T02:52:32.721Z,-0.59
2017-04-27T02:53:42.981Z,-0.6
2017-04-27T02:54:53.245Z,-0.64
2017-04-27T02:56:03.502Z,-0.53
2017-04-27T02:57:13.757Z,-0.66
2017-04-27T02:58:24.016Z,-0.59
2017-04-27T02:59:34.334Z,-0.63
2017-04-27T03:00:44.591Z,-0.66
2017-04-27T03:01:54.843Z,-0.66
2017-04-27T03:03:05.090Z,-0.69
2017-04-27T03:04:15.027Z,-0.63
2017-04-27T03:05:24.961Z,-0.6
2017-04-27T03:06:35.221Z,-0.63
2017-04-27T03:07:45.480Z,-0.57
2017-04-27T03:08:55.742Z,-0.56
2017-04-27T03:10:05.997Z,-0.59
2017-04-27T03:11:16.264Z,-0.56
2017-04-27T03:12:26.527Z,-0.53
2017-04-27T03:13:36.799Z,-0.54
2017-04-27T03:14:46.755Z,-0.49
2017-04-27T03:15:57.013Z,-0.44
2017-04-27T03:17:07.267Z,-0.41
2017-04-27T03:18:17.532Z,-0.38
2017-04-27T03:19:27.800Z,-0.38
2017-04-27T03:20:38.055Z,-0.45
2017-04-27T03:21:48.305Z,-0.39
2017-04-27T03:22:58.561Z,-0.44
2017-04-27T03:24:08.823Z,-0.45
2017-04-27T03:25:18.762Z,-0.42
2017-04-27T03:26:29.022Z,-0.36
2017-04-27T03:27:39.279Z,-0.45
2017-04-27T03:28:49.222Z,-0.33
2017-04-27T03:29:59.480Z,-0.38
2017-04-27T03:31:09.421Z,-0.3
2017-04-27T03:32:19.683Z,-0.35
2017-04-27T03:33:29.940Z,-0.26
2017-04-27T03:34:40.203Z,-0.26
2017-04-27T03:35:50.453Z,-0.2
2017-04-27T03:37:00.713Z,-0.21
2017-04-27T03:38:10.965Z,-0.18
2017-04-27T03:39:21.221Z,-0.21
2017-04-27T03:40:31.514Z,-0.13
2017-04-27T03:41:41.758Z,-0.2
2017-04-27T03:42:52.024Z,-0.2
2017-04-27T03:44:02.293Z,-0.2
2017-04-27T03:45:12.565Z,-0.24
2017-04-27T03:46:22.816Z,-0.21
2017-04-27T03:47:33.072Z,-0.33
2017-04-27T03:48:43.334Z,-0.18
2017-04-27T03:49:53.596Z,-0.21
2017-04-27T03:51:03.866Z,-0.13
2017-04-27T03:52:14.127Z,-0.17
2017-04-27T03:53:24.379Z,-0.13
2017-04-27T03:54:34.012Z,-0.12
2017-04-27T03:55:43.956Z,-0.09
2017-04-27T03:56:54.204Z,-0.13
2017-04-27T03:58:04.147Z,-0.13
2017-04-27T03:59:14.417Z,-0.2
2017-04-27T04:00:24.681Z,-0.13
2017-04-27T04:01:34.346Z,-0.17
2017-04-27T04:02:44.599Z,-0.21
2017-04-27T04:03:54.855Z,-0.23
2017-04-27T04:05:05.105Z,-0.21
2017-04-27T04:06:15.044Z,-0.18
2017-04-27T04:07:24.986Z,-0.31
2017-04-27T04:08:35.237Z,-0.28
2017-04-27T04:09:45.497Z,-0.35
2017-04-27T04:10:55.747Z,-0.3
2017-04-27T04:12:06.005Z,-0.24
2017-04-27T04:13:15.950Z,-0.28
2017-04-27T04:14:26.212Z,-0.31
2017-04-27T04:15:36.476Z,-0.27
2017-04-27T04:16:46.736Z,-0.23
2017-04-27T04:17:56.992Z,-0.3
2017-04-27T04:19:07.254Z,-0.31
2017-04-27T04:20:16.894Z,-0.23
2017-04-27T04:21:26.523Z,-0.13
2017-04-27T04:22:36.781Z,-0.21
2017-04-27T04:23:47.046Z,-0.1
2017-04-27T04:24:57.304Z,-0.12
2017-04-27T04:26:07.240Z,-0.18
2017-04-27T04:27:16.880Z,-0.06
2017-04-27T04:28:27.140Z,-0.09
2017-04-27T04:29:36.771Z,-0.07
2017-04-27T04:30:46.706Z,-0.07
2017-04-27T04:31:56.959Z,-0.03
2017-04-27T04:33:07.215Z,-0.02
2017-04-27T04:34:17.158Z,0
2017-04-27T04:35:27.448Z,0.08
2017-04-27T04:36:37.388Z,0
2017-04-27T04:37:47.647Z,-0.05
2017-04-27T04:38:57.942Z,0.11
2017-04-27T04:40:07.576Z,0.18
2017-04-27T04:41:16.894Z,0.26
2017-04-27T04:42:27.152Z,0.2
2017-04-27T04:43:37.099Z,0.26
2017-04-27T04:44:47.070Z,0.29
2017-04-27T04:45:57.341Z,0.12
2017-04-27T04:47:07.610Z,0.16
2017-04-27T04:48:17.863Z,0.09
2017-04-27T04:49:28.122Z,0.27
2017-04-27T04:50:38.393Z,0.34
2017-04-27T04:51:48.658Z,0.3
2017-04-27T04:52:58.921Z,0.47
2017-04-27T04:54:09.210Z,0.48
2017-04-27T04:55:19.490Z,0.34
2017-04-27T04:56:29.743Z,0.34
2017-04-27T04:57:39.691Z,0.48
2017-04-27T04:58:49.638Z,0.52
2017-04-27T04:59:59.895Z,0.56
2017-04-27T05:01:10.158Z,0.63
2017-04-27T05:02:20.408Z,0.51
2017-04-27T05:03:30.664Z,0.55
2017-04-27T05:04:40.922Z,0.66
2017-04-27T05:05:51.178Z,0.68
2017-04-27T05:07:01.470Z,0.68
2017-04-27T05:08:11.738Z,0.56
2017-04-27T05:09:21.998Z,0.55
2017-04-27T05:10:31.942Z,0.68
2017-04-27T05:11:42.198Z,0.59
2017-04-27T05:12:52.454Z,0.55
2017-04-27T05:14:02.719Z,0.64
2017-04-27T05:15:12.981Z,0.64
2017-04-27T05:16:23.245Z,0.74
2017-04-27T05:17:33.530Z,0.86
2017-04-27T05:18:43.788Z,0.88
2017-04-27T05:19:54.051Z,1.03
2017-04-27T05:21:04.315Z,1.09
2017-04-27T05:22:14.255Z,1.09
2017-04-27T05:23:24.520Z,1.06
2017-04-27T05:24:34.468Z,1.1
2017-04-27T05:25:44.749Z,1.2
2017-04-27T05:26:55.004Z,1.25
2017-04-27T05:28:05.256Z,1.27
2017-04-27T05:29:15.530Z,1.07
2017-04-27T05:30:25.785Z,1.21
2017-04-27T05:31:36.043Z,1.13
2017-04-27T05:32:46.306Z,1.02
2017-04-27T05:33:56.572Z,1.14
2017-04-27T05:35:06.832Z,1.1
2017-04-27T05:36:17.082Z,1.21
2017-04-27T05:37:27.334Z,1.22
2017-04-27T05:38:37.273Z,1.31
2017-04-27T05:39:47.529Z,1.27
2017-04-27T05:40:57.789Z,1.32
2017-04-27T05:42:08.041Z,1.43
2017-04-27T05:43:17.374Z,1.36
2017-04-27T05:44:27.332Z,1.31
2017-04-27T05:45:37.597Z,1.22
2017-04-27T05:46:47.845Z,1.22
2017-04-27T05:47:58.107Z,1.12
2017-04-27T05:49:08.054Z,1.07
2017-04-27T05:50:18.005Z,1.03
2017-04-27T05:51:28.257Z,1.07
2017-04-27T05:52:38.519Z,1.13
2017-04-27T05:53:48.796Z,1.22
2017-04-27T05:54:59.054Z,1.3
2017-04-27T05:56:09.313Z,1.31
2017-04-27T05:57:19.586Z,1.46
2017-04-27T05:58:29.856Z,1.61
2017-04-27T05:59:39.807Z,1.58
2017-04-27T06:00:50.062Z,1.68
2017-04-27T06:02:00.322Z,1.74
2017-04-27T06:03:10.587Z,1.86
2017-04-27T06:04:20.838Z,1.84
2017-04-27T06:05:31.097Z,1.98
2017-04-27T06:06:41.355Z,1.95
2017-04-27T06:07:51.617Z,2
2017-04-27T06:09:01.875Z,1.84
2017-04-27T06:10:11.816Z,1.93
2017-04-27T06:11:22.080Z,1.95
2017-04-27T06:12:32.341Z,2.04
2017-04-27T06:13:42.303Z,2.08
2017-04-27T06:14:52.567Z,2.15
2017-04-27T06:16:02.838Z,2.26
2017-04-27T06:17:12.493Z,2.33
2017-04-27T06:18:22.753Z,2.46
2017-04-27T06:19:33.019Z,2.59
2017-04-27T06:20:43.504Z,2.58
2017-04-27T06:21:53.449Z,2.65
2017-04-27T06:23:03.719Z,2.68
2017-04-27T06:24:13.984Z,2.8
2017-04-27T06:25:24.241Z,2.93
2017-04-27T06:26:33.873Z,2.91
2017-04-27T06:27:44.163Z,3.01
2017-04-27T06:28:54.430Z,3.09
2017-04-27T06:30:04.073Z,3.11
2017-04-27T06:31:13.709Z,3.27
2017-04-27T06:32:23.970Z,3.3
2017-04-27T06:33:33.909Z,3.29
2017-04-27T06:34:44.170Z,3.46
2017-04-27T06:35:54.432Z,3.34
2017-04-27T06:37:04.381Z,3.43
2017-04-27T06:38:14.641Z,3.52
2017-04-27T06:39:24.901Z,3.55
2017-04-27T06:40:35.156Z,3.7
2017-04-27T06:41:45.430Z,3.74
2017-04-27T06:42:55.725Z,3.74
2017-04-27T06:44:05.980Z,3.81
2017-04-27T06:45:15.929Z,3.78
2017-04-27T06:46:26.184Z,3.89
2017-04-27T06:47:36.451Z,3.91
2017-04-27T06:48:46.707Z,3.95
2017-04-27T06:49:56.966Z,3.99
2017-04-27T06:51:07.229Z,3.91
2017-04-27T06:52:17.176Z,4
2017-04-27T06:53:27.459Z,4
2017-04-27T06:54:37.737Z,4.06
2017-04-27T06:55:48.000Z,4.16
2017-04-27T06:56:58.256Z,4.09
2017-04-27T06:58:08.202Z,4.16
2017-04-27T06:59:18.145Z,4.03
2017-04-27T07:00:28.405Z,4.14
2017-04-27T07:01:38.676Z,4.16
2017-04-27T07:02:48.942Z,4.14
2017-04-27T07:03:59.215Z,4.14
2017-04-27T07:05:09.471Z,4.21
2017-04-27T07:06:19.752Z,4.2
2017-04-27T07:07:29.694Z,4.06
2017-04-27T07:08:39.956Z,4.06
2017-04-27T07:09:50.222Z,4.07
2017-04-27T07:11:00.494Z,4.25
2017-04-27T07:12:10.760Z,4.2
2017-04-27T07:13:20.711Z,4.13
2017-04-27T07:14:30.970Z,4.09
2017-04-27T07:15:41.256Z,4.03
2017-04-27T07:16:51.510Z,4.02
2017-04-27T07:18:01.773Z,4.07
2017-04-27T07:19:12.034Z,4.12
2017-04-27T07:20:22.300Z,4.16
2017-04-27T07:21:32.257Z,4.2
2017-04-27T07:22:42.515Z,4.31
2017-04-27T07:23:52.771Z,4.3
2017-04-27T07:25:03.031Z,4.39
2017-04-27T07:26:12.978Z,4.32
2017-04-27T07:27:23.241Z,4.4
2017-04-27T07:28:33.506Z,4.43
2017-04-27T07:29:43.770Z,4.43
2017-04-27T07:30:54.026Z,4.34
2017-04-27T07:32:04.290Z,4.38
2017-04-27T07:33:14.230Z,4.28
2017-04-27T07:34:24.179Z,4.3
2017-04-27T07:35:34.129Z,4.36
2017-04-27T07:36:44.069Z,4.3
2017-04-27T07:37:54.023Z,4.4
2017-04-27T07:39:04.289Z,4.5
2017-04-27T07:40:14.554Z,4.45
2017-04-27T07:41:24.808Z,4.53
2017-04-27T07:42:34.762Z,4.42
2017-04-27T07:43:44.709Z,4.46
2017-04-27T07:44:54.969Z,4.42
2017-04-27T07:46:05.243Z,4.42
2017-04-27T07:47:14.910Z,4.5
2017-04-27T07:48:24.853Z,4.4
2017-04-27T07:49:34.810Z,4.34
2017-04-27T07:50:45.076Z,4.45
2017-04-27T07:51:55.338Z,4.39
2017-04-27T07:53:05.284Z,4.32
2017-04-27T07:54:15.552Z,4.27
2017-04-27T07:55:25.194Z,4.38
2017-04-27T07:56:35.456Z,4.32
2017-04-27T07:57:45.395Z,4.5
2017-04-27T07:58:55.658Z,4.42
2017-04-27T08:00:05.919Z,4.43
2017-04-27T08:01:16.184Z,4.5
2017-04-27T08:02:26.442Z,4.48
2017-04-27T08:03:36.703Z,4.43
2017-04-27T08:04:46.969Z,4.43
2017-04-27T08:05:57.240Z,4.5
2017-04-27T08:07:07.524Z,4.5
2017-04-27T08:08:17.162Z,4.48
2017-04-27T08:09:27.115Z,4.5
2017-04-27T08:10:37.412Z,4.43
2017-04-27T08:11:47.044Z,4.57
2017-04-27T08:12:57.311Z,4.57
2017-04-27T08:14:06.943Z,4.76
2017-04-27T08:15:17.202Z,4.76
2017-04-27T08:16:27.153Z,4.75
2017-04-27T08:17:37.101Z,4.97
2017-04-27T08:18:47.364Z,5.02
2017-04-27T08:19:57.625Z,5.12
2017-04-27T08:21:07.895Z,5.01
2017-04-27T08:22:17.527Z,5.04
2017-04-27T08:23:27.788Z,5.07
2017-04-27T08:24:37.735Z,5.12
2017-04-27T08:25:47.694Z,5.02
2017-04-27T08:26:57.959Z,5.12
2017-04-27T08:28:08.226Z,5.13
2017-04-27T08:29:18.489Z,5.15
2017-04-27T08:30:28.750Z,5.13
2017-04-27T08:31:38.706Z,5.13
2017-04-27T08:32:48.971Z,5.07
2017-04-27T08:33:59.231Z,5.15
2017-04-27T08:35:09.492Z,5.12
2017-04-27T08:36:19.752Z,5.02
2017-04-27T08:37:30.009Z,5.08
2017-04-27T08:38:40.273Z,5.12
2017-04-27T08:39:50.534Z,5.01
2017-04-27T08:41:00.797Z,5
2017-04-27T08:42:10.744Z,5.01
2017-04-27T08:43:20.697Z,4.89
2017-04-27T08:44:30.984Z,5
2017-04-27T08:45:41.249Z,5.02
2017-04-27T08:46:51.503Z,5.12
2017-04-27T08:48:01.791Z,5.13
2017-04-27T08:49:12.059Z,5.2
2017-04-27T08:50:22.318Z,5.22
2017-04-27T08:51:32.580Z,5.28
2017-04-27T08:52:42.550Z,5.31
2017-04-27T08:53:52.812Z,5.37
2017-04-27T08:55:02.754Z,5.49
2017-04-27T08:56:12.701Z,5.49
2017-04-27T08:57:22.339Z,5.61
2017-04-27T08:58:32.034Z,5.7
2017-04-27T08:59:42.296Z,5.77
2017-04-27T09:00:52.242Z,5.84
2017-04-27T09:02:02.188Z,5.83
2017-04-27T09:03:12.158Z,6.01
2017-04-27T09:04:22.443Z,6.01
2017-04-27T09:05:32.073Z,6.1
2017-04-27T09:06:42.336Z,5.98
2017-04-27T09:07:52.595Z,5.81
2017-04-27T09:09:02.859Z,5.79
2017-04-27T09:10:13.126Z,5.8
2017-04-27T09:11:23.389Z,5.83
2017-04-27T09:12:33.333Z,5.81
2017-04-27T09:13:43.295Z,5.87
2017-04-27T09:14:53.553Z,5.91
2017-04-27T09:16:03.551Z,6.05
2017-04-27T09:17:13.501Z,6.2
2017-04-27T09:18:23.765Z,6.38
2017-04-27T09:19:33.083Z,6.46
2017-04-27T09:20:43.039Z,6.46
2017-04-27T09:21:53.302Z,6.41
2017-04-27T09:23:03.255Z,6.41
2017-04-27T09:24:12.896Z,6.43
2017-04-27T09:25:23.170Z,6.46
2017-04-27T09:26:33.439Z,6.39
2017-04-27T09:27:43.388Z,6.6
2017-04-27T09:28:53.653Z,6.67
2017-04-27T09:30:03.924Z,6.72
2017-04-27T09:31:13.555Z,6.74
2017-04-27T09:32:23.815Z,6.83
2017-04-27T09:33:34.075Z,6.83
2017-04-27T09:34:44.040Z,6.92
2017-04-27T09:35:53.985Z,6.93
2017-04-27T09:37:04.246Z,6.97
2017-04-27T09:38:14.515Z,7.04
2017-04-27T09:39:24.159Z,7.21
2017-04-27T09:40:34.114Z,7.13
2017-04-27T09:41:44.376Z,7.29
2017-04-27T09:42:54.327Z,7.4
2017-04-27T09:44:04.592Z,7.44
2017-04-27T09:45:14.225Z,7.56
2017-04-27T09:46:24.496Z,7.64
2017-04-27T09:47:34.755Z,7.77
2017-04-27T09:48:45.019Z,7.9
2017-04-27T09:49:55.329Z,8.05
2017-04-27T09:51:04.959Z,8.16
2017-04-27T09:52:15.226Z,8.24
2017-04-27T09:53:25.491Z,8.36
2017-04-27T09:54:35.444Z,8.42
2017-04-27T09:55:45.727Z,8.42
2017-04-27T09:56:55.987Z,8.42
2017-04-27T09:58:05.970Z,8.41
2017-04-27T09:59:15.918Z,8.39
2017-04-27T10:00:25.864Z,8.44
2017-04-27T10:01:35.812Z,8.41
2017-04-27T10:02:46.079Z,8.49
2017-04-27T10:03:56.344Z,8.5
2017-04-27T10:05:06.615Z,8.54
2017-04-27T10:06:16.563Z,8.54
2017-04-27T10:07:26.829Z,8.64
2017-04-27T10:08:37.099Z,8.56
2017-04-27T10:09:47.363Z,8.46
2017-04-27T10:10:57.310Z,8.59
2017-04-27T10:12:07.263Z,8.49
2017-04-27T10:13:17.213Z,8.41
2017-04-27T10:14:27.474Z,8.42
2017-04-27T10:15:37.738Z,8.32
2017-04-27T10:16:48.003Z,8.35
2017-04-27T10:17:57.950Z,8.23
2017-04-27T10:19:08.213Z,8.24
2017-04-27T10:20:18.167Z,8.24
2017-04-27T10:21:28.432Z,8.24
2017-04-27T10:22:38.715Z,8.16
2017-04-27T10:23:48.982Z,8.03
2017-04-27T10:24:59.241Z,7.93
2017-04-27T10:26:09.506Z,7.8
2017-04-27T10:27:19.774Z,7.74
2017-04-27T10:28:30.048Z,7.72
2017-04-27T10:29:39.699Z,7.58
2017-04-27T10:30:49.976Z,7.61
2017-04-27T10:32:00.243Z,7.59
2017-04-27T10:33:10.509Z,7.55
2017-04-27T10:34:20.450Z,7.51
2017-04-27T10:35:30.398Z,7.41
2017-04-27T10:36:40.344Z,7.39
2017-04-27T10:37:50.606Z,7.31
2017-04-27T10:39:00.874Z,7.32
2017-04-27T10:40:11.137Z,7.29
2017-04-27T10:41:21.401Z,7.15
2017-04-27T10:42:31.688Z,7.11
2017-04-27T10:43:41.954Z,7.1
2017-04-27T10:44:52.238Z,7.08
2017-04-27T10:46:02.516Z,7.08
2017-04-27T10:47:12.782Z,7.03
2017-04-27T10:48:23.043Z,7.07
2017-04-27T10:49:32.995Z,7.11
2017-04-27T10:50:43.260Z,7.1
2017-04-27T10:51:53.515Z,7.15
2017-04-27T10:53:03.772Z,7.21
2017-04-27T10:54:13.094Z,7.14
2017-04-27T10:55:22.746Z,7.26
2017-04-27T10:56:33.010Z,7.29
2017-04-27T10:57:43.274Z,7.32
2017-04-27T10:58:53.541Z,7.29
2017-04-27T11:00:03.811Z,7.26
2017-04-27T11:01:13.761Z,7.14
2017-04-27T11:02:24.019Z,7
2017-04-27T11:03:34.279Z,6.89
2017-04-27T11:04:44.228Z,6.82
2017-04-27T11:05:54.174Z,6.67
2017-04-27T11:07:04.479Z,6.65
2017-04-27T11:08:14.744Z,6.54
2017-04-27T11:09:24.692Z,6.53
2017-04-27T11:10:34.953Z,6.57
2017-04-27T11:11:44.899Z,6.6
2017-04-27T11:12:55.155Z,6.52
2017-04-27T11:14:05.427Z,6.59
2017-04-27T11:15:15.376Z,6.53
2017-04-27T11:16:25.636Z,6.75
2017-04-27T11:17:35.897Z,6.89
2017-04-27T11:18:46.171Z,7.07
2017-04-27T11:19:56.433Z,7.4
2017-04-27T11:21:06.699Z,7.95
2017-04-27T11:22:16.643Z,8.42
2017-04-27T11:23:34.289Z,9.03
2017-04-27T11:24:44.551Z,9.66
2017-04-27T11:25:54.812Z,10.3
2017-04-27T11:27:05.082Z,10.95
2017-04-27T11:28:15.353Z,11.55
2017-04-27T11:29:25.330Z,12.21
2017-04-27T11:30:35.588Z,12.58
2017-04-27T11:31:45.851Z,12.84
2017-04-27T11:32:56.115Z,12.88
2017-04-27T11:34:06.378Z,13.13
2017-04-27T11:35:16.647Z,13.17
2017-04-27T11:36:26.917Z,13.36
2017-04-27T11:37:37.192Z,13.64
2017-04-27T11:38:47.470Z,14.07
2017-04-27T11:39:57.742Z,14.31
2017-04-27T11:41:07.385Z,14.81
2017-04-27T11:42:17.336Z,15.17
2017-04-27T11:43:27.607Z,15.52
2017-04-27T11:44:37.877Z,15.83
2017-04-27T11:45:48.148Z,16.22
2017-04-27T11:46:58.420Z,16.41
2017-04-27T11:48:08.695Z,16.62
2017-04-27T11:49:18.349Z,16.94
2017-04-27T11:50:28.631Z,17.2
2017-04-27T11:51:38.906Z,17.54
2017-04-27T11:52:49.184Z,17.75
2017-04-27T11:53:59.462Z,17.93
2017-04-27T11:55:09.732Z,18.34
2017-04-27T11:56:19.704Z,18.66
2017-04-27T11:57:29.662Z,19.01
2017-04-27T11:58:39.939Z,19.24
2017-04-27T11:59:49.905Z,19.56
2017-04-27T12:01:00.190Z,19.84
2017-04-27T12:02:10.467Z,20.29
2017-04-27T12:03:20.748Z,20.46
2017-04-27T12:04:31.028Z,20.7
2017-04-27T12:05:41.306Z,20.88
2017-04-27T12:06:51.586Z,21.03
2017-04-27T12:08:01.865Z,21.47
2017-04-27T12:09:11.829Z,21.83
2017-04-27T12:10:21.793Z,22.01
2017-04-27T12:11:32.076Z,21.85
2017-04-27T12:12:42.355Z,21.81
2017-04-27T12:13:52.317Z,21.85
2017-04-27T12:15:02.598Z,22
2017-04-27T12:16:12.875Z,22.03
2017-04-27T12:17:22.841Z,21.54
2017-04-27T12:18:32.817Z,21.59
2017-04-27T12:19:42.789Z,21.84
2017-04-27T12:20:53.072Z,21.8
2017-04-27T12:22:02.732Z,21.78
2017-04-27T12:23:12.385Z,21.69
2017-04-27T12:24:22.365Z,21.78
2017-04-27T12:25:32.341Z,21.84
2017-04-27T12:26:42.625Z,21.84
2017-04-27T12:27:52.904Z,22.14
2017-04-27T12:29:05.191Z,22.55
2017-04-27T12:30:15.174Z,22.91
2017-04-27T12:31:25.451Z,23.14
2017-04-27T12:32:35.106Z,23.34
2017-04-27T12:33:45.082Z,23.25
2017-04-27T12:34:55.359Z,23.42
2017-04-27T12:36:05.642Z,23.71
2017-04-27T12:37:15.612Z,23.64
2017-04-27T12:38:25.893Z,23.44
2017-04-27T12:39:35.854Z,23.59
2017-04-27T12:40:46.134Z,23.56
2017-04-27T12:41:56.410Z,23.84
2017-04-27T12:43:06.695Z,24
2017-04-27T12:44:16.977Z,24.13
2017-04-27T12:45:26.951Z,24.24
2017-04-27T12:46:37.239Z,24.4
2017-04-27T12:47:47.532Z,24.47
2017-04-27T12:48:57.830Z,24.63
2017-04-27T12:50:07.487Z,24.37
2017-04-27T12:51:17.765Z,24.51
2017-04-27T12:52:28.050Z,24.25
2017-04-27T12:53:38.334Z,24.22
2017-04-27T12:54:48.311Z,23.96
2017-04-27T12:55:58.280Z,24.01
2017-04-27T12:57:08.558Z,24.03
2017-04-27T12:58:17.899Z,23.86
2017-04-27T12:59:27.870Z,23.56
2017-04-27T13:00:38.153Z,23.67
2017-04-27T13:01:48.126Z,23.32
2017-04-27T13:02:58.404Z,22.81
2017-04-27T13:04:08.695Z,22.33
2017-04-27T13:05:18.979Z,22.31
2017-04-27T13:06:28.945Z,22.41
2017-04-27T13:07:39.234Z,22.18
2017-04-27T13:08:49.204Z,21.41
2017-04-27T13:09:59.482Z,21.59
2017-04-27T13:11:09.456Z,21.32
2017-04-27T13:12:19.765Z,21.22
2017-04-27T13:13:29.730Z,21.3
2017-04-27T13:14:39.697Z,21.35
2017-04-27T13:15:50.012Z,20.78
2017-04-27T13:16:59.999Z,20.93
2017-04-27T13:18:09.967Z,21.53
2017-04-27T13:19:20.001Z,21.96
2017-04-27T13:20:29.961Z,22.08
2017-04-27T13:21:40.240Z,22.18
2017-04-27T13:22:50.523Z,22.33
2017-04-27T13:24:00.808Z,22.61
2017-04-27T13:25:11.088Z,22.89
2017-04-27T13:26:21.055Z,22.44
2017-04-27T13:27:33.588Z,22.62
2017-04-27T13:28:43.562Z,22.92
2017-04-27T13:29:53.842Z,23.01
2017-04-27T13:31:03.814Z,23.16
2017-04-27T13:32:14.098Z,23.18
2017-04-27T13:33:24.375Z,23.13
2017-04-27T13:34:34.654Z,22.19
2017-04-27T13:35:44.936Z,22.59
2017-04-27T13:36:55.227Z,22.99
2017-04-27T13:38:05.201Z,23.55
2017-04-27T13:39:14.858Z,23.77
2017-04-27T13:40:25.147Z,23.56
2017-04-27T13:41:35.437Z,23.54
2017-04-27T13:42:45.409Z,23.18
2017-04-27T13:43:55.695Z,23.25
2017-04-27T13:45:05.981Z,23.44
2017-04-27T13:46:15.948Z,23.82
2017-04-27T13:47:26.231Z,24.24
2017-04-27T13:48:36.508Z,24.29
2017-04-27T13:49:46.790Z,24.38
2017-04-27T13:50:57.081Z,24.38
2017-04-27T13:52:07.370Z,24.71
2017-04-27T13:53:17.333Z,24.79
2017-04-27T13:54:27.302Z,24.38
2017-04-27T13:55:37.280Z,24.69
2017-04-27T13:56:47.560Z,24.69
2017-04-27T13:57:57.853Z,24.24
2017-04-27T13:59:08.146Z,24.14
2017-04-27T14:00:18.429Z,24.22
2017-04-27T14:01:28.083Z,24.69
2017-04-27T14:02:38.363Z,24.88
2017-04-27T14:03:48.647Z,24.1
2017-04-27T14:04:58.931Z,24.21
2017-04-27T14:06:09.216Z,24.09
2017-04-27T14:07:19.500Z,24.36
2017-04-27T14:08:29.782Z,24.93
2017-04-27T14:09:40.062Z,25.34
2017-04-27T14:10:50.341Z,25.52
2017-04-27T14:12:00.626Z,25.56
2017-04-27T14:13:10.601Z,25.92
2017-04-27T14:14:20.576Z,26.46
2017-04-27T14:15:30.545Z,26.7
2017-04-27T14:16:40.518Z,25.99
2017-04-27T14:17:50.211Z,26.06
2017-04-27T14:19:00.501Z,26.66
2017-04-27T14:20:09.844Z,26.08
2017-04-27T14:21:19.815Z,25.43
2017-04-27T14:22:30.097Z,25.76
2017-04-27T14:23:40.386Z,25.71
2017-04-27T14:24:50.372Z,25.91
2017-04-27T14:26:00.664Z,26.11
2017-04-27T14:27:10.638Z,26.44
2017-04-27T14:28:20.625Z,26.81
2017-04-27T14:29:30.910Z,27.23
2017-04-27T14:30:41.195Z,27.52
2017-04-27T14:31:51.477Z,27.72
2017-04-27T14:33:01.445Z,28.08
2017-04-27T14:34:11.413Z,28.2
2017-04-27T14:35:21.404Z,28.3
2017-04-27T14:36:31.685Z,28.25
2017-04-27T14:37:41.972Z,28.4
2017-04-27T14:38:52.254Z,28.47
2017-04-27T14:40:02.231Z,27.94
2017-04-27T14:41:12.200Z,27.72
2017-04-27T14:42:22.210Z,28.08
2017-04-27T14:43:32.500Z,27.88
2017-04-27T14:44:42.484Z,27.78
2017-04-27T14:45:52.772Z,27.53
2017-04-27T14:47:02.745Z,27.53
2017-04-27T14:48:13.029Z,27.5
2017-04-27T14:49:23.007Z,27.3
2017-04-27T14:50:32.982Z,27.44
2017-04-27T14:51:42.952Z,27.33
2017-04-27T14:52:53.240Z,27.38
2017-04-27T14:54:03.526Z,27.26
2017-04-27T14:55:13.819Z,27.26
2017-04-27T14:56:24.108Z,27
2017-04-27T14:57:34.389Z,27
2017-04-27T14:58:44.673Z,26.98
2017-04-27T14:59:54.960Z,27.28
2017-04-27T15:01:04.613Z,27.55
2017-04-27T15:02:14.891Z,27.33
2017-04-27T15:03:25.169Z,26.97
2017-04-27T15:04:35.464Z,27.03
2017-04-27T15:05:45.753Z,27.5
2017-04-27T15:06:56.032Z,27.76
2017-04-27T15:08:06.320Z,28
2017-04-27T15:09:16.616Z,28.04
2017-04-27T15:10:26.904Z,27.67
2017-04-27T15:11:37.181Z,27.11
2017-04-27T15:12:47.150Z,27.3
2017-04-27T15:13:57.436Z,27.61
2017-04-27T15:15:07.726Z,27.79
2017-04-27T15:16:17.376Z,27.67
2017-04-27T15:17:27.659Z,27.29
2017-04-27T15:18:37.942Z,27.07
2017-04-27T15:19:47.909Z,27.37
2017-04-27T15:20:58.194Z,27.47